Time;durP1;ratioP1;P1;durP2;ratioP2;P2;SDS_P1;SDS_P2;PMS_P1;PMS_P2;Temp;Humidity;BMP_temperature;BMP_pressure;BME280_temperature;BME280_humidity;BME280_pressure;Samples;Min_cycle;Max_cycle;Signal;HPM_P1;HPM_P2
2022/06/29 00:01:42;;;;;;;;;1.00;1.00;;;;;23.12;38.03;101082.66;5102409;27;49392;-68
2022/06/29 00:04:08;;;;;;;;;0.25;0.25;;;;;23.11;38.10;101086.38;5101667;27;48610;-68
2022/06/29 00:06:33;;;;;;;;;2.00;2.00;;;;;23.08;38.04;101090.22;5102683;27;45144;-68
2022/06/29 00:08:58;;;;;;;;;1.25;1.00;;;;;23.03;38.25;101081.50;5102648;27;46182;-68
2022/06/29 00:11:23;;;;;;;;;2.50;1.00;;;;;23.01;38.22;101086.22;5102610;27;45206;-68
2022/06/29 00:13:49;;;;;;;;;2.00;2.00;;;;;22.90;38.39;101065.31;5101239;27;45293;-68
2022/06/29 00:16:14;;;;;;;;;2.00;1.00;;;;;22.96;38.48;101079.41;5102273;27;45309;-68
2022/06/29 00:18:39;;;;;;;;;2.00;2.00;;;;;22.92;38.81;101084.22;5102776;27;45370;-68
2022/06/29 00:21:05;;;;;;;;;2.50;2.50;;;;;22.86;38.69;101074.69;5096884;27;50553;-68
2022/06/29 00:23:30;;;;;;;;;1.75;1.75;;;;;22.86;39.21;101080.13;5101425;27;45351;-68
2022/06/29 00:25:56;;;;;;;;;2.00;2.00;;;;;22.85;39.10;101081.09;5102390;27;45363;-68
2022/06/29 00:28:23;;;;;;;;;2.00;2.00;;;;;22.85;39.45;101078.38;5101310;27;45439;-68
2022/06/29 00:30:49;;;;;;;;;4.25;2.50;;;;;22.82;39.50;101081.38;5099947;27;45528;-68
2022/06/29 00:33:14;;;;;;;;;1.50;1.50;;;;;22.78;39.47;101077.16;5095727;27;46021;-68
2022/06/29 00:35:39;;;;;;;;;4.00;3.00;;;;;22.70;39.79;101066.88;5098336;27;50033;-68
2022/06/29 00:38:05;;;;;;;;;1.25;1.25;;;;;22.67;39.40;101058.06;5099193;27;45296;-68
2022/06/29 00:40:30;;;;;;;;;1.00;1.00;;;;;22.70;39.43;101066.00;5098036;27;45621;-68
2022/06/29 00:42:55;;;;;;;;;2.00;2.00;;;;;22.72;39.78;101069.44;5097057;27;45480;-68
2022/06/29 00:45:21;;;;;;;;;4.00;2.00;;;;;22.66;40.10;101053.63;5101232;27;51742;-68
2022/06/29 00:47:46;;;;;;;;;2.50;2.00;;;;;22.67;40.13;101060.78;5099398;27;45500;-68
2022/06/29 00:50:13;;;;;;;;;2.00;2.00;;;;;22.63;40.05;101060.16;5101909;27;45448;-68
2022/06/29 00:52:42;;;;;;;;;2.00;2.00;;;;;22.64;40.54;101067.34;5101967;27;45233;-68
2022/06/29 00:55:15;;;;;;;;;2.75;2.75;;;;;22.59;40.49;101050.53;5101011;27;45375;-68
2022/06/29 00:57:42;;;;;;;;;2.00;2.00;;;;;22.56;40.57;101048.03;5101898;27;45353;-68
2022/06/29 01:00:09;;;;;;;;;5.50;3.00;;;;;22.55;40.49;101047.19;5101933;27;45324;-68
2022/06/29 01:02:34;;;;;;;;;3.25;2.00;;;;;22.47;40.56;101036.03;5101394;27;46261;-68
2022/06/29 01:05:00;;;;;;;;;3.00;2.50;;;;;22.50;40.76;101046.69;5099133;27;46328;-68
2022/06/29 01:07:30;;;;;;;;;2.00;2.00;;;;;22.54;40.88;101058.19;5101930;27;45398;-68
2022/06/29 01:09:56;;;;;;;;;2.50;2.25;;;;;22.53;41.06;101056.44;5101755;27;45486;-68
2022/06/29 01:12:22;;;;;;;;;2.00;2.00;;;;;22.50;40.98;101057.56;5100467;27;45547;-68
2022/06/29 01:14:49;;;;;;;;;3.00;2.00;;;;;22.48;41.16;101059.50;5100570;27;45216;-68
2022/06/29 01:17:15;;;;;;;;;3.75;1.75;;;;;22.45;41.50;101056.16;5101427;27;45423;-68
2022/06/29 01:19:42;;;;;;;;;2.00;2.00;;;;;22.42;41.28;101062.72;5096683;27;45460;-68
2022/06/29 01:22:19;;;;;;;;;3.00;2.25;;;;;22.40;41.68;101059.22;5101553;27;45338;-68
2022/06/29 01:24:46;;;;;;;;;3.00;3.00;;;;;22.39;41.95;101057.50;5097209;27;45252;-68
2022/06/29 01:27:15;;;;;;;;;2.75;2.50;;;;;22.36;41.52;101052.31;5101545;27;45409;-68
2022/06/29 01:29:40;;;;;;;;;2.00;2.00;;;;;22.36;42.13;101057.75;5094061;27;45502;-68
2022/06/29 01:32:06;;;;;;;;;0.50;0.50;;;;;22.30;42.10;101059.09;5097259;27;45461;-68
2022/06/29 01:34:32;;;;;;;;;3.00;3.00;;;;;22.30;42.14;101048.22;5100586;27;45246;-68
2022/06/29 01:36:59;;;;;;;;;2.75;2.75;;;;;22.32;42.25;101053.50;5101355;27;45269;-68
2022/06/29 01:39:24;;;;;;;;;3.00;3.00;;;;;22.26;42.75;101043.09;5101288;27;45401;-68
2022/06/29 01:41:50;;;;;;;;;1.00;1.00;;;;;22.27;42.07;101055.69;5099807;27;45456;-68
2022/06/29 01:44:15;;;;;;;;;2.25;2.25;;;;;22.26;42.83;101049.41;5099999;27;45503;-68
2022/06/29 01:46:41;;;;;;;;;3.50;3.50;;;;;22.24;42.65;101053.22;5099046;27;45337;-68
2022/06/29 01:49:07;;;;;;;;;3.00;3.00;;;;;22.14;42.40;101036.75;5101207;27;45543;-68
2022/06/29 01:51:33;;;;;;;;;3.00;3.00;;;;;22.07;42.77;101040.91;5098210;27;45380;-68
2022/06/29 01:53:58;;;;;;;;;4.00;4.00;;;;;22.11;42.64;101050.56;5101231;27;45421;-68
2022/06/29 01:56:23;;;;;;;;;4.00;4.00;;;;;22.07;43.18;101047.22;5082317;27;45344;-68
2022/06/29 01:58:49;;;;;;;;;5.00;3.75;;;;;22.08;43.46;101050.81;5091427;27;45455;-68
2022/06/29 02:01:14;;;;;;;;;4.00;4.00;;;;;22.06;43.48;101048.19;5099751;27;45388;-68
2022/06/29 02:03:39;;;;;;;;;3.00;2.75;;;;;22.02;43.57;101044.00;5100858;27;45364;-68
2022/06/29 02:06:05;;;;;;;;;4.00;3.00;;;;;22.02;43.30;101042.13;5100775;27;45448;-68
2022/06/29 02:08:30;;;;;;;;;5.00;3.75;;;;;22.04;43.16;101047.47;5100611;27;45294;-68
2022/06/29 02:10:59;;;;;;;;;4.25;2.00;;;;;21.95;43.42;101027.28;5099633;27;46244;-68
2022/06/29 02:13:24;;;;;;;;;2.00;2.00;;;;;22.01;43.60;101047.69;5099954;27;45289;-68
2022/06/29 02:15:50;;;;;;;;;4.00;3.00;;;;;22.00;43.66;101044.09;5095653;27;45489;-68
2022/06/29 02:18:15;;;;;;;;;3.75;3.75;;;;;22.03;43.76;101053.88;5091737;27;45400;-68
2022/06/29 02:20:41;;;;;;;;;4.00;3.50;;;;;21.98;43.49;101051.50;5095732;27;45776;-68
2022/06/29 02:23:06;;;;;;;;;2.50;2.50;;;;;21.96;43.77;101056.19;5099721;27;45365;-68
2022/06/29 02:25:32;;;;;;;;;3.25;3.00;;;;;21.90;43.40;101051.22;5100766;27;45394;-68
2022/06/29 02:27:57;;;;;;;;;5.00;4.00;;;;;21.81;43.70;101036.47;5100741;27;45317;-68
2022/06/29 02:34:43;;;;;;;;;2.25;2.25;;;;;21.92;43.35;101045.66;5100056;27;47334;-68
2022/06/29 02:35:52;;;;;;;;;2.00;2.00;;;;;21.94;43.92;101050.00;5100726;27;45330;-68
2022/06/29 02:38:17;;;;;;;;;4.00;4.00;;;;;21.95;44.10;101051.75;5100483;27;45452;-68
2022/06/29 02:40:42;;;;;;;;;3.75;3.00;;;;;21.91;44.37;101042.06;5100195;27;45280;-68
2022/06/29 02:43:08;;;;;;;;;3.25;3.25;;;;;21.93;44.26;101048.25;5098023;27;45416;-68
2022/06/29 02:45:33;;;;;;;;;3.00;3.00;;;;;21.90;44.52;101042.19;5099127;27;45341;-68
2022/06/29 02:47:59;;;;;;;;;2.50;2.50;;;;;21.86;44.27;101035.25;5099312;27;45481;-68
2022/06/29 02:50:24;;;;;;;;;3.25;3.00;;;;;21.82;44.18;101034.63;5100162;27;45389;-68
2022/06/29 02:52:49;;;;;;;;;2.50;2.50;;;;;21.83;44.26;101033.63;5099452;27;45339;-68
2022/06/29 02:55:15;;;;;;;;;5.00;4.00;;;;;21.88;44.98;101036.00;5087117;27;45315;-68
2022/06/29 02:57:40;;;;;;;;;4.25;3.00;;;;;21.82;44.56;101037.34;5100179;27;45370;-68
2022/06/29 03:00:06;;;;;;;;;6.00;3.50;;;;;21.87;44.55;101034.25;5100066;27;46190;-68
2022/06/29 03:02:31;;;;;;;;;3.00;3.00;;;;;21.85;45.00;101039.81;5097806;27;45516;-68
2022/06/29 03:04:56;;;;;;;;;4.00;4.00;;;;;21.82;45.27;101031.91;5099842;27;50760;-68
2022/06/29 03:07:22;;;;;;;;;2.50;2.50;;;;;21.76;44.98;101030.50;5095349;27;50566;-68
2022/06/29 03:09:47;;;;;;;;;2.25;2.25;;;;;21.72;45.35;101020.88;5100179;27;46144;-68
2022/06/29 03:12:12;;;;;;;;;1.00;1.00;;;;;21.71;44.99;101029.97;5098124;27;45330;-68
2022/06/29 03:14:38;;;;;;;;;3.00;2.00;;;;;21.62;45.29;101022.53;5098723;27;45325;-68
2022/06/29 03:17:03;;;;;;;;;2.75;2.00;;;;;21.71;45.74;101040.00;5099762;27;45463;-68
2022/06/29 03:19:28;;;;;;;;;3.00;3.00;;;;;21.67;45.90;101036.66;5095526;27;45385;-68
2022/06/29 03:21:54;;;;;;;;;4.00;4.00;;;;;21.69;45.54;101037.38;5102660;27;45356;-68
2022/06/29 03:24:19;;;;;;;;;3.00;3.00;;;;;21.63;45.61;101032.41;5102096;27;45292;-68
2022/06/29 03:26:44;;;;;;;;;4.00;3.00;;;;;21.65;45.54;101036.75;5103464;27;45645;-68
2022/06/29 03:29:10;;;;;;;;;3.00;2.00;;;;;21.65;46.03;101041.31;5103082;27;45276;-68
2022/06/29 03:31:35;;;;;;;;;2.50;2.50;;;;;21.62;45.58;101036.13;5101878;27;52032;-68
2022/06/29 03:34:00;;;;;;;;;2.25;2.25;;;;;21.62;46.25;101036.13;5103353;27;45514;-68
2022/06/29 03:36:25;;;;;;;;;3.25;2.75;;;;;21.60;46.12;101033.53;5103296;27;46370;-68
2022/06/29 03:38:51;;;;;;;;;3.00;2.00;;;;;21.60;46.23;101040.78;5102851;27;45286;-68
2022/06/29 03:41:16;;;;;;;;;4.25;2.00;;;;;21.58;46.41;101035.47;5102294;27;45829;-68
2022/06/29 03:43:41;;;;;;;;;2.25;2.25;;;;;21.57;46.48;101031.03;5103003;27;45330;-68
2022/06/29 03:46:07;;;;;;;;;2.00;2.00;;;;;21.50;46.05;101024.31;5102450;27;45467;-68
2022/06/29 03:48:32;;;;;;;;;3.00;3.00;;;;;21.46;45.95;101023.63;5099391;27;47250;-68
2022/06/29 03:50:58;;;;;;;;;2.00;2.00;;;;;21.36;45.82;101019.84;5102714;27;45311;-68
2022/06/29 03:53:23;;;;;;;;;3.00;3.00;;;;;21.37;45.69;101035.19;5100928;27;45507;-68
2022/06/29 03:55:48;;;;;;;;;3.75;2.75;;;;;21.36;46.14;101022.56;5102230;27;45423;-68
2022/06/29 03:58:14;;;;;;;;;5.25;4.00;;;;;21.34;45.73;101023.69;5102596;27;46260;-68
2022/06/29 04:00:39;;;;;;;;;2.75;2.75;;;;;21.31;46.15;101022.03;5102317;27;52850;-68
2022/06/29 04:03:04;;;;;;;;;4.00;4.00;;;;;21.32;45.76;101031.94;5096029;27;45321;-68
2022/06/29 04:05:30;;;;;;;;;2.00;2.00;;;;;21.33;46.31;101041.78;5088733;27;45463;-68
2022/06/29 04:07:55;;;;;;;;;3.00;2.00;;;;;21.32;46.00;101031.94;5100513;27;46154;-68
2022/06/29 04:10:20;;;;;;;;;3.00;3.00;;;;;21.32;46.27;101031.94;5102742;27;45322;-68
2022/06/29 04:12:46;;;;;;;;;2.75;2.75;;;;;21.30;46.65;101028.47;5101202;27;45314;-68
2022/06/29 04:15:11;;;;;;;;;5.00;3.00;;;;;21.28;46.51;101034.00;5102350;27;45380;-68
2022/06/29 04:17:37;;;;;;;;;3.00;3.00;;;;;21.23;46.67;101030.75;5102565;27;45314;-68
2022/06/29 04:20:03;;;;;;;;;3.00;3.00;;;;;21.23;46.45;101030.75;5096709;27;45252;-68
2022/06/29 04:22:29;;;;;;;;;4.25;3.00;;;;;21.17;47.01;101030.34;5101691;27;45246;-68
2022/06/29 04:24:54;;;;;;;;;2.75;2.25;;;;;21.16;46.66;101023.16;5101325;27;45190;-68
2022/06/29 04:27:20;;;;;;;;;5.00;4.00;;;;;21.17;47.08;101033.06;5102366;27;45333;-68
2022/06/29 04:29:45;;;;;;;;;2.25;2.25;;;;;21.12;47.30;101038.81;5094216;27;45427;-68
2022/06/29 04:32:11;;;;;;;;;3.00;3.00;;;;;21.07;46.96;101022.84;5097718;27;45792;-68
2022/06/29 04:34:37;;;;;;;;;4.00;4.00;;;;;21.03;46.88;101025.88;5102396;27;45280;-68
2022/06/29 04:37:02;;;;;;;;;2.75;2.75;;;;;21.08;46.93;101035.47;5102160;27;46291;-68
2022/06/29 04:39:28;;;;;;;;;4.00;4.00;;;;;21.08;47.31;101035.47;5102148;27;45317;-68
2022/06/29 04:41:53;;;;;;;;;5.25;3.00;;;;;21.01;46.88;101028.72;5099837;27;45386;-68
2022/06/29 04:44:19;;;;;;;;;5.00;4.50;;;;;20.92;47.02;101029.38;5101556;27;45545;-68
2022/06/29 04:46:44;;;;;;;;;5.00;5.00;;;;;20.88;47.52;101017.00;5095935;27;45477;-68
2022/06/29 04:49:09;;;;;;;;;6.00;4.00;;;;;20.87;47.64;101021.56;5102011;27;45281;-68
2022/06/29 04:51:35;;;;;;;;;3.25;3.25;;;;;20.88;47.51;101033.28;5100657;27;45320;-68
2022/06/29 04:54:02;;;;;;;;;6.25;3.50;;;;;20.85;47.64;101022.69;5101051;27;45648;-68
2022/06/29 04:56:29;;;;;;;;;3.00;3.00;;;;;20.81;47.65;101023.84;5101524;27;46281;-68
2022/06/29 04:58:56;;;;;;;;;5.25;4.00;;;;;20.79;47.74;101021.25;5102214;27;45376;-68
2022/06/29 05:01:23;;;;;;;;;2.50;2.50;;;;;20.77;47.47;101020.50;5100943;27;45431;-68
2022/06/29 05:03:50;;;;;;;;;3.75;3.00;;;;;20.79;48.04;101014.97;5092040;27;45361;-68
2022/06/29 05:06:15;;;;;;;;;4.00;3.00;;;;;20.78;47.94;101022.25;5101584;27;46559;-69
2022/06/29 05:08:41;;;;;;;;;5.50;4.50;;;;;20.65;47.81;100997.81;5101955;27;45451;-68
2022/06/29 05:11:06;;;;;;;;;3.00;3.00;;;;;20.80;47.73;101022.09;5101883;27;45368;-68
2022/06/29 05:13:32;;;;;;;;;8.50;5.00;;;;;20.81;47.80;101018.44;5098370;27;45164;-68
2022/06/29 05:15:57;;;;;;;;;5.00;3.00;;;;;20.78;48.64;101014.09;5100085;27;45965;-68
2022/06/29 05:18:24;;;;;;;;;3.75;3.75;;;;;20.67;48.51;101000.44;5101880;27;45156;-68
2022/06/29 05:20:49;;;;;;;;;5.75;5.00;;;;;20.75;48.49;101011.59;5095563;27;45144;-68
2022/06/29 05:23:14;;;;;;;;;4.75;4.75;;;;;20.69;48.52;100999.31;5100887;27;45279;-68
2022/06/29 05:25:40;;;;;;;;;5.00;5.00;;;;;20.72;48.45;101012.66;5099082;27;57868;-68
2022/06/29 05:28:06;;;;;;;;;6.00;4.50;;;;;20.67;48.39;101001.28;5101646;27;45297;-68
2022/06/29 05:30:31;;;;;;;;;3.50;3.50;;;;;20.68;48.57;101003.03;5101069;27;45231;-69
2022/06/29 05:32:57;;;;;;;;;4.25;3.00;;;;;20.73;48.45;101010.81;5101473;27;45284;-68
2022/06/29 05:35:22;;;;;;;;;6.50;4.75;;;;;20.76;48.13;101023.31;5100377;27;45474;-68
2022/06/29 05:37:47;;;;;;;;;8.25;5.50;;;;;20.68;48.25;101015.69;5101423;27;45424;-68
2022/06/29 05:40:13;;;;;;;;;5.00;3.00;;;;;20.71;48.31;101021.81;5101020;27;45424;-68
2022/06/29 05:42:38;;;;;;;;;4.50;3.75;;;;;20.62;47.91;101013.41;5098742;27;45487;-68
2022/06/29 05:45:04;;;;;;;;;5.00;5.00;;;;;20.74;47.90;101031.56;5099447;27;45386;-68
2022/06/29 05:47:29;;;;;;;;;3.75;3.75;;;;;20.69;48.57;101022.88;5098550;27;45287;-68
2022/06/29 05:50:00;;;;;;;;;3.00;3.00;;;;;20.73;47.99;101030.69;5100759;27;47170;-68
2022/06/29 05:52:25;;;;;;;;;2.00;2.00;;;;;20.81;47.86;101035.56;5099837;27;45518;-68
2022/06/29 05:54:51;;;;;;;;;1.75;1.75;;;;;20.85;47.31;101036.25;5099938;27;46462;-69
2022/06/29 05:57:17;;;;;;;;;2.75;2.25;;;;;20.88;46.97;101036.88;5101160;27;45435;-68
2022/06/29 05:59:42;;;;;;;;;3.25;3.00;;;;;20.87;47.54;101026.13;5100727;27;45354;-68
2022/06/29 06:02:08;;;;;;;;;3.25;2.25;;;;;20.92;47.34;101032.09;5100887;27;45321;-67
2022/06/29 06:04:33;;;;;;;;;3.00;2.00;;;;;20.92;46.89;101018.53;5098152;27;46737;-68
2022/06/29 06:06:58;;;;;;;;;2.25;2.00;;;;;20.93;47.05;101009.41;5097445;27;45301;-67
2022/06/29 06:09:27;;;;;;;;;5.00;2.25;;;;;21.02;46.24;101016.88;5093475;27;45321;-67
2022/06/29 06:11:56;;;;;;;;;3.00;3.00;;;;;21.00;46.47;101018.84;5094158;27;45393;-66
2022/06/29 06:14:21;;;;;;;;;1.25;1.25;;;;;20.99;46.82;101022.53;5094309;27;46514;-66
2022/06/29 06:16:47;;;;;;;;;5.00;3.25;;;;;20.94;46.43;101004.84;5099212;27;45556;-67
2022/06/29 06:19:12;;;;;;;;;2.75;1.50;;;;;21.05;46.60;101026.66;5096858;27;45442;-67
2022/06/29 06:21:38;;;;;;;;;3.50;2.00;;;;;21.07;46.58;101031.00;5096092;27;45493;-67
2022/06/29 06:24:04;;;;;;;;;3.00;2.00;;;;;21.07;46.53;101032.84;5100417;27;46375;-67
2022/06/29 06:26:29;;;;;;;;;2.00;1.50;;;;;21.00;46.40;101020.69;5099311;27;45437;-67
2022/06/29 06:28:55;;;;;;;;;1.25;1.25;;;;;21.02;45.56;101030.47;5099151;27;45502;-67
2022/06/29 06:31:20;;;;;;;;;1.00;1.00;;;;;21.08;46.10;101040.88;5097691;27;45969;-67
2022/06/29 06:33:46;;;;;;;;;1.25;1.25;;;;;21.12;45.43;101040.63;5086646;27;46489;-66
2022/06/29 06:36:11;;;;;;;;;2.00;2.00;;;;;21.09;45.26;101030.88;5099126;27;50781;-67
2022/06/29 06:38:36;;;;;;;;;1.00;1.00;;;;;21.13;45.28;101032.38;5100531;27;45563;-67
2022/06/29 06:43:46;;;;;;;;;1.00;1.00;;;;;21.16;45.39;101024.03;5094810;27;45867;-67
2022/06/29 06:46:12;;;;;;;;;1.25;1.25;;;;;21.28;45.62;101043.97;5096955;27;45380;-67
2022/06/29 06:48:37;;;;;;;;;3.25;3.25;;;;;21.30;45.84;101036.63;5097360;27;45548;-67
2022/06/29 06:51:03;;;;;;;;;1.25;1.25;;;;;21.26;45.83;101027.81;5097532;27;45321;-67
2022/06/29 06:53:28;;;;;;;;;3.00;2.00;;;;;21.27;45.83;101031.41;5090782;27;45386;-67
2022/06/29 06:55:53;;;;;;;;;1.00;1.00;;;;;21.28;45.34;101028.59;5093225;27;45441;-67
2022/06/29 06:58:19;;;;;;;;;1.75;1.00;;;;;21.33;45.37;101030.94;5096135;27;45598;-67
2022/06/29 07:00:44;;;;;;;;;2.00;2.00;;;;;21.30;45.40;101020.31;5102381;27;45381;-67
2022/06/29 07:03:09;;;;;;;;;4.25;1.75;;;;;21.40;45.21;101034.06;5102158;27;46004;-66
2022/06/29 07:05:35;;;;;;;;;2.00;2.00;;;;;21.38;45.55;101017.88;5101670;27;45512;-68
2022/06/29 07:08:00;;;;;;;;;0.75;0.75;;;;;21.41;45.25;101022.25;5101070;27;45403;-68
2022/06/29 07:10:25;;;;;;;;;5.00;3.75;;;;;21.42;45.24;101021.28;5095648;27;45446;-69
2022/06/29 07:12:51;;;;;;;;;3.50;3.00;;;;;21.45;45.10;101021.00;5097381;27;46252;-67
2022/06/29 07:15:16;;;;;;;;;2.00;2.00;;;;;21.51;45.10;101022.47;5091541;27;45277;-67
2022/06/29 07:17:41;;;;;;;;;2.00;2.00;;;;;21.48;45.00;101012.69;5099129;27;45678;-67
2022/06/29 07:20:08;;;;;;;;;1.25;0.00;;;;;21.60;44.67;101024.47;5095647;27;45727;-66
2022/06/29 07:22:34;;;;;;;;;5.75;2.75;;;;;21.54;45.16;101003.22;5102490;27;46133;-66
2022/06/29 07:24:59;;;;;;;;;3.00;1.50;;;;;21.63;44.61;101017.00;5101165;27;45501;-68
2022/06/29 07:27:24;;;;;;;;;2.00;1.00;;;;;21.71;44.21;101015.53;5100419;27;50505;-68
2022/06/29 07:29:53;;;;;;;;;0.50;0.00;;;;;21.76;44.17;101021.50;5102584;27;45471;-68
2022/06/29 07:32:19;;;;;;;;;1.00;1.00;;;;;21.81;44.56;101036.47;5100311;27;46757;-66
2022/06/29 07:34:45;;;;;;;;;2.75;2.00;;;;;21.82;44.86;101027.34;5100858;27;45385;-66
2022/06/29 07:37:10;;;;;;;;;2.00;1.00;;;;;21.86;43.95;101025.25;5098036;27;45611;-66
2022/06/29 07:39:36;;;;;;;;;2.00;2.00;;;;;21.81;44.13;101008.44;5102405;27;45496;-66
2022/06/29 07:42:02;;;;;;;;;1.00;1.00;;;;;21.90;44.27;101013.19;5097656;27;47396;-65
2022/06/29 07:44:27;;;;;;;;;0.00;0.00;;;;;21.95;44.62;101007.38;5089439;27;46340;-66
2022/06/29 07:46:53;;;;;;;;;1.50;1.25;;;;;22.04;44.73;101017.56;5094409;27;45445;-66
2022/06/29 07:49:18;;;;;;;;;1.75;1.75;;;;;22.10;44.95;101013.50;5097181;27;45420;-66
2022/06/29 07:51:43;;;;;;;;;4.25;2.00;;;;;22.14;44.54;100994.13;5101397;27;45534;-66
2022/06/29 07:54:09;;;;;;;;;1.75;1.75;;;;;22.21;44.45;101000.81;5099710;27;45470;-66
2022/06/29 07:56:36;;;;;;;;;2.00;0.50;;;;;22.30;44.03;101003.81;5101706;27;45443;-66
2022/06/29 07:59:02;;;;;;;;;1.00;1.00;;;;;22.41;44.02;101013.88;5101536;27;45421;-66
2022/06/29 08:01:28;;;;;;;;;2.00;1.50;;;;;22.44;43.82;101003.63;5099682;27;45660;-66
2022/06/29 08:03:54;;;;;;;;;1.75;1.50;;;;;22.38;43.75;100985.06;5100213;27;45707;-66
2022/06/29 08:06:20;;;;;;;;;2.00;2.00;;;;;22.57;43.42;101009.84;5101110;27;45336;-66
2022/06/29 08:08:46;;;;;;;;;1.75;1.00;;;;;22.64;42.83;101020.25;5101856;27;45590;-66
2022/06/29 08:11:11;;;;;;;;;3.50;1.00;;;;;22.67;42.72;101011.81;5100917;27;46316;-65
2022/06/29 08:13:38;;;;;;;;;3.00;1.00;;;;;22.63;42.76;101000.31;5101435;27;45508;-67
2022/06/29 08:16:07;;;;;;;;;1.00;1.00;;;;;22.75;42.98;101006.63;5101346;27;45342;-67
2022/06/29 08:18:33;;;;;;;;;2.00;2.00;;;;;22.84;42.69;101005.91;5102051;27;45239;-67
2022/06/29 08:20:59;;;;;;;;;1.00;1.00;;;;;22.97;42.90;101011.25;5096733;27;46186;-67
2022/06/29 08:23:25;;;;;;;;;3.75;1.50;;;;;22.94;42.89;100987.00;5101174;27;45300;-67
2022/06/29 08:25:50;;;;;;;;;3.00;1.00;;;;;23.08;42.60;101013.13;5101633;27;45318;-67
2022/06/29 08:28:15;;;;;;;;;1.00;1.00;;;;;23.10;42.82;100992.06;5101496;27;45582;-67
2022/06/29 08:30:41;;;;;;;;;1.50;1.50;;;;;23.23;42.87;101002.84;5101038;27;45575;-67
2022/06/29 08:33:06;;;;;;;;;1.00;1.00;;;;;23.26;42.27;100998.00;5100836;27;45713;-68
2022/06/29 08:35:32;;;;;;;;;2.00;1.00;;;;;23.33;42.41;100997.50;5101199;27;45199;-68
2022/06/29 08:37:57;;;;;;;;;2.00;2.00;;;;;23.35;42.07;100990.91;5101444;27;45871;-66
2022/06/29 08:40:23;;;;;;;;;1.00;1.00;;;;;23.36;42.36;100994.53;5100971;27;46416;-68
2022/06/29 08:42:49;;;;;;;;;3.25;2.00;;;;;23.46;42.14;100999.06;5100841;27;45447;-68
2022/06/29 08:45:15;;;;;;;;;2.00;2.00;;;;;23.25;42.26;100958.13;5100852;27;45440;-68
2022/06/29 08:47:41;;;;;;;;;2.00;1.00;;;;;23.49;41.61;100992.53;5100271;27;46511;-67
2022/06/29 08:50:08;;;;;;;;;1.00;1.00;;;;;23.57;41.91;100995.47;5100886;27;47165;-67
2022/06/29 08:52:38;;;;;;;;;1.50;1.50;;;;;23.60;41.19;101000.66;5088152;27;45307;-68
2022/06/29 08:55:06;;;;;;;;;2.00;2.00;;;;;23.62;41.43;100998.69;5098478;27;45788;-68
2022/06/29 08:57:35;;;;;;;;;1.50;1.00;;;;;23.59;40.75;100989.88;5101355;27;45259;-68
2022/06/29 09:00:01;;;;;;;;;2.00;1.50;;;;;23.63;40.93;100984.03;5097850;27;45518;-69
2022/06/29 09:02:27;;;;;;;;;1.00;1.00;;;;;23.71;41.11;100993.47;5099922;27;45464;-68
2022/06/29 09:04:54;;;;;;;;;1.00;1.00;;;;;23.67;41.76;100985.53;5099858;27;45511;-68
2022/06/29 09:07:19;;;;;;;;;1.00;1.00;;;;;23.73;40.49;100999.63;5100581;27;45489;-68
2022/06/29 09:10:05;;;;;;;;;1.00;1.00;;;;;23.78;40.50;101011.88;5100656;27;46509;-68
2022/06/29 09:12:31;;;;;;;;;1.00;1.00;;;;;23.76;41.11;100999.38;5100464;27;45625;-68
2022/06/29 09:14:58;;;;;;;;;1.00;1.00;;;;;23.79;41.10;101018.19;5100287;27;45463;-67
2022/06/29 09:17:24;;;;;;;;;2.25;0.50;;;;;23.80;41.77;101006.28;5099519;27;45444;-68
2022/06/29 09:19:53;;;;;;;;;4.00;1.50;;;;;23.82;41.37;101005.22;5094626;27;45698;-68
2022/06/29 09:22:19;;;;;;;;;1.50;1.50;;;;;23.85;41.39;101001.34;5100230;27;45335;-68
2022/06/29 09:24:44;;;;;;;;;4.00;3.00;;;;;23.79;40.95;100989.09;5100282;27;45422;-68
2022/06/29 09:27:11;;;;;;;;;3.00;3.00;;;;;23.83;40.25;100987.84;5100094;27;45546;-66
2022/06/29 09:29:42;;;;;;;;;1.00;1.00;;;;;23.91;40.27;101010.88;5100555;27;45416;-67
2022/06/29 09:32:10;;;;;;;;;2.25;1.25;;;;;23.92;40.54;101005.28;5100231;27;45868;-67
2022/06/29 09:34:43;;;;;;;;;4.00;2.50;;;;;23.96;40.52;101001.31;5099992;27;45685;-67
2022/06/29 09:37:12;;;;;;;;;2.00;2.00;;;;;23.96;39.75;101017.66;5100508;27;45804;-68
2022/06/29 09:39:41;;;;;;;;;2.00;1.00;;;;;23.97;40.59;101015.81;5100403;27;46120;-70
2022/06/29 09:42:15;;;;;;;;;1.75;0.75;;;;;23.97;40.13;101011.25;5100140;27;45510;-68
2022/06/29 09:44:42;;;;;;;;;2.00;2.00;;;;;23.99;39.67;101021.97;5096828;27;45417;-67
2022/06/29 09:47:15;;;;;;;;;1.00;1.00;;;;;23.95;39.46;101005.03;5098251;27;45452;-68
2022/06/29 09:49:46;;;;;;;;;1.50;1.00;;;;;23.98;40.17;101012.09;5098088;27;47254;-65
2022/06/29 09:52:12;;;;;;;;;2.75;1.75;;;;;23.94;40.33;101005.16;5100693;27;45488;-67
2022/06/29 09:54:40;;;;;;;;;3.00;1.00;;;;;24.04;40.57;101019.75;5100460;27;45332;-68
2022/06/29 09:57:07;;;;;;;;;1.75;0.75;;;;;24.07;40.03;101011.28;5100926;27;45179;-68
2022/06/29 10:02:37;;;;;;;;;2.00;1.00;;;;;24.08;39.49;101001.28;5100381;27;45523;-67
2022/06/29 10:05:08;;;;;;;;;1.00;1.00;;;;;24.10;39.08;101012.91;5097249;27;45433;-67
2022/06/29 10:07:37;;;;;;;;;0.50;0.50;;;;;24.10;39.70;101002.00;5100221;27;45454;-68
2022/06/29 10:10:06;;;;;;;;;1.50;1.00;;;;;24.09;39.05;101003.88;5099534;27;46096;-68
2022/06/29 10:15:41;;;;;;;;;2.00;1.00;;;;;24.10;39.00;100999.28;5099128;27;45394;-67
2022/06/29 10:18:30;;;;;;;;;2.25;1.00;;;;;24.08;39.77;100987.63;5100043;27;45390;-67
2022/06/29 10:20:57;;;;;;;;;2.25;1.50;;;;;24.13;38.93;100996.28;5093918;27;46531;-66
2022/06/29 10:23:43;;;;;;;;;1.00;1.00;;;;;24.15;38.41;100991.56;5097205;27;45768;-67
2022/06/29 10:26:33;;;;;;;;;1.25;1.00;;;;;24.18;38.55;100994.88;5098332;27;45381;-68
2022/06/29 10:29:10;;;;;;;;;1.25;1.25;;;;;24.21;38.56;100989.16;5097172;27;45497;-68
2022/06/29 10:31:50;;;;;;;;;1.00;1.00;;;;;24.25;37.87;100980.72;5096424;27;46463;-68
2022/06/29 10:34:28;;;;;;;;;1.00;0.25;;;;;24.25;38.44;100978.00;5097986;27;45399;-69
2022/06/29 10:37:02;;;;;;;;;2.00;1.00;;;;;24.27;38.01;100973.25;5099282;27;45526;-69
2022/06/29 10:39:51;;;;;;;;;2.00;1.50;;;;;24.29;37.96;100985.78;5099668;27;45835;-68
2022/06/29 10:45:08;;;;;;;;;1.00;1.00;;;;;24.37;37.88;100966.00;5098522;27;45679;-71
2022/06/29 10:47:33;;;;;;;;;3.75;2.00;;;;;24.38;38.03;100957.69;5097203;27;45476;-71
2022/06/29 10:50:18;;;;;;;;;0.75;0.75;;;;;24.44;37.72;100959.03;5099437;27;45606;-71
2022/06/29 10:52:44;;;;;;;;;3.00;1.25;;;;;24.44;37.62;100956.31;5099471;27;47099;-71
2022/06/29 10:55:11;;;;;;;;;2.75;2.75;;;;;24.48;37.61;100962.34;5098414;27;45377;-71
2022/06/29 10:57:38;;;;;;;;;1.00;1.00;;;;;24.44;37.27;100969.06;5098651;27;45476;-72
2022/06/29 11:00:09;;;;;;;;;1.50;1.50;;;;;24.46;37.21;100964.34;5098437;27;45381;-71
2022/06/29 11:02:36;;;;;;;;;1.25;0.25;;;;;24.45;36.81;100957.16;5099256;27;46690;-71
2022/06/29 11:05:01;;;;;;;;;1.75;1.75;;;;;24.50;36.63;100966.66;5098394;27;45497;-71
2022/06/29 11:12:56;;;;;;;;;2.25;1.00;;;;;24.54;36.70;100949.03;5087840;27;45693;-71
2022/06/29 11:15:47;;;;;;;;;1.00;1.00;;;;;24.58;36.51;100957.84;5094272;27;45433;-71
2022/06/29 11:18:13;;;;;;;;;2.00;1.00;;;;;24.53;36.81;100932.78;5096043;27;45415;-71
2022/06/29 11:20:40;;;;;;;;;0.25;0.25;;;;;24.66;37.26;100949.84;5093183;27;45549;-71
2022/06/29 11:23:10;;;;;;;;;1.00;1.00;;;;;24.70;36.90;100939.50;5093926;27;47639;-71
2022/06/29 11:25:37;;;;;;;;;2.75;2.75;;;;;24.73;37.53;100944.72;5099454;27;45432;-71
2022/06/29 11:28:03;;;;;;;;;0.00;0.00;;;;;24.72;36.87;100926.59;5100142;27;45343;-71
2022/06/29 11:30:29;;;;;;;;;1.00;1.00;;;;;24.77;36.16;100930.66;5097906;27;45405;-71
2022/06/29 11:32:54;;;;;;;;;2.00;1.00;;;;;24.87;36.11;100935.28;5098678;27;45443;-71
2022/06/29 11:35:21;;;;;;;;;4.00;2.00;;;;;24.85;36.34;100924.47;5096885;27;45306;-71
2022/06/29 11:37:48;;;;;;;;;2.25;1.00;;;;;24.91;36.78;100944.94;5099861;27;45268;-71
2022/06/29 11:40:14;;;;;;;;;2.00;2.00;;;;;24.92;36.69;100941.19;5098810;27;45460;-72
2022/06/29 11:45:36;;;;;;;;;3.00;2.00;;;;;24.90;36.12;100924.06;5101976;27;45405;-71